This is the latest recevied weather packets stored in our database for station/object SP4MAZ-13. If no packets are shown the sender has not sent any weather packets the latest 10 day(s).
| Time | Temp. | Humidity | Pressure | Rain* | Wind** | Luminosity | Snow |
|---|---|---|---|---|---|---|---|
| 1777211333 | 6.67° C | 41% | 2147.4 hPa | - | - | - | - |
| 1777211030 | 7.22° C | 42% | 2147.4 hPa | - | - | - | - |
| 1777210728 | 7.22° C | 41% | 2147.4 hPa | - | - | - | - |
| 1777210425 | 6.67° C | 39% | 2147.4 hPa | - | - | - | - |
| 1777210122 | 7.22° C | 42% | 2147.4 hPa | - | - | - | - |
| 1777209820 | 7.22° C | 44% | 2147.4 hPa | - | - | - | - |
| 1777209519 | 7.22° C | 45% | 2147.4 hPa | - | - | - | - |
| 1777209215 | 6.11° C | 45% | 2147.4 hPa | - | - | - | - |
| 1777208914 | 6.11° C | 46% | 2147.4 hPa | - | - | - | - |
| 1777208611 | 6.67° C | 49% | 2147.4 hPa | - | - | - | - |
| 1777208307 | 6.11° C | 48% | 2147.4 hPa | - | - | - | - |
| 1777208006 | 6.11° C | 48% | 2147.4 hPa | - | - | - | - |
| 1777207704 | 6.11° C | 51% | 2147.4 hPa | - | - | - | - |
| 1777207403 | 6.67° C | 51% | 2147.4 hPa | - | - | - | - |
| 1777207100 | 6.11° C | 51% | 2147.4 hPa | - | - | - | - |
| 1777206796 | 6.67° C | 55% | 2147.4 hPa | - | - | - | - |
| 1777206495 | 6.11° C | 59% | 2147.4 hPa | - | - | - | - |
| 1777206191 | 6.11° C | 64% | 2147.4 hPa | - | - | - | - |
| 1777205890 | 5.56° C | 62% | 2147.4 hPa | - | - | - | - |
| 1777205588 | 5° C | 68% | 2147.4 hPa | - | - | - | - |
| 1777205285 | 5° C | 72% | 2147.4 hPa | - | - | - | - |
| 1777204981 | 3.89° C | 75% | 2147.4 hPa | - | - | - | - |
| 1777204678 | 3.33° C | 87% | 2147.4 hPa | - | - | - | - |
| 1777204374 | 3.33° C | 86% | 2147.4 hPa | - | - | - | - |
| 1777204071 | 6.11° C | 54% | 2147.4 hPa | - | - | - | - |
* Rain since midnight (hover to see other rain measurements)
** Current wind speed in m/s (hover to see current wind gust speed)